createdAt,value
2018-09-30T00:00:15.091Z,1009.25
2018-09-30T00:01:15.079Z,1009.23
2018-09-30T00:02:15.068Z,1009.23
2018-09-30T00:03:15.107Z,1009.26
2018-09-30T00:04:15.045Z,1009.17
2018-09-30T00:05:15.036Z,1009.20
2018-09-30T00:06:15.025Z,1009.20
2018-09-30T00:07:15.013Z,1009.21
2018-09-30T00:08:15.001Z,1009.20
2018-09-30T00:09:15.007Z,1009.22
2018-09-30T00:10:14.987Z,1009.20
2018-09-30T00:11:14.969Z,1009.19
2018-09-30T00:12:14.958Z,1009.13
2018-09-30T00:13:14.970Z,1009.16
2018-09-30T00:14:14.935Z,1009.15
2018-09-30T00:15:14.929Z,1009.13
2018-09-30T00:16:14.918Z,1009.14
2018-09-30T00:17:14.904Z,1009.16
2018-09-30T00:18:14.897Z,1009.12
2018-09-30T00:19:14.899Z,1009.11
2018-09-30T00:20:14.871Z,1009.11
2018-09-30T00:21:14.860Z,1009.06
2018-09-30T00:22:14.851Z,1009.05
2018-09-30T00:23:14.841Z,1009.04
2018-09-30T00:24:14.842Z,1009.01
2018-09-30T00:25:14.819Z,1008.95
2018-09-30T00:26:14.806Z,1008.96
2018-09-30T00:27:14.809Z,1008.96
2018-09-30T00:28:14.786Z,1008.98
2018-09-30T00:29:14.775Z,1008.95
2018-09-30T00:30:14.764Z,1008.94
2018-09-30T00:31:14.751Z,1008.95
2018-09-30T00:32:14.761Z,1008.90
2018-09-30T00:33:14.730Z,1008.84
2018-09-30T00:34:14.717Z,1008.86
2018-09-30T00:35:14.715Z,1008.82
2018-09-30T00:36:14.755Z,1008.81
2018-09-30T00:37:14.688Z,1008.75
2018-09-30T00:38:14.695Z,1008.74
2018-09-30T00:39:14.665Z,1008.70
2018-09-30T00:40:14.654Z,1008.70
2018-09-30T00:41:14.643Z,1008.72
2018-09-30T00:42:14.642Z,1008.70
2018-09-30T00:43:14.622Z,1008.71
2018-09-30T00:44:14.661Z,1008.70
2018-09-30T00:45:14.601Z,1008.71
2018-09-30T00:46:14.592Z,1008.62
2018-09-30T00:47:14.577Z,1008.68
2018-09-30T00:48:14.570Z,1008.59
2018-09-30T00:49:14.556Z,1008.63
2018-09-30T00:50:14.560Z,1008.64
2018-09-30T00:51:14.536Z,1008.63
2018-09-30T00:52:14.523Z,1008.59
2018-09-30T00:53:14.545Z,1008.56
2018-09-30T00:54:14.500Z,1008.61
2018-09-30T00:55:14.493Z,1008.53
2018-09-30T00:56:14.500Z,1008.53
2018-09-30T00:57:14.479Z,1008.50
2018-09-30T00:58:14.477Z,1008.43
2018-09-30T00:59:14.447Z,1008.43
2018-09-30T01:00:14.439Z,1008.45
2018-09-30T01:01:14.426Z,1008.37
2018-09-30T01:02:14.414Z,1008.37
2018-09-30T01:03:14.406Z,1008.34
2018-09-30T01:04:14.417Z,1008.32
2018-09-30T01:05:14.383Z,1008.33
2018-09-30T01:06:14.371Z,1008.27
2018-09-30T01:07:14.362Z,1008.26
2018-09-30T01:08:14.351Z,1008.20
2018-09-30T01:09:14.340Z,1008.18
2018-09-30T01:10:14.349Z,1008.21
2018-09-30T01:11:14.317Z,1008.16
2018-09-30T01:12:14.305Z,1008.10
2018-09-30T01:13:14.295Z,1008.12
2018-09-30T01:14:14.285Z,1008.12
2018-09-30T01:15:14.273Z,1008.11
2018-09-30T01:16:14.275Z,1008.11
2018-09-30T01:17:14.251Z,1008.11
2018-09-30T01:18:14.243Z,1008.12
2018-09-30T01:19:14.229Z,1008.13
2018-09-30T01:20:14.218Z,1008.10
2018-09-30T01:21:14.222Z,1008.10
2018-09-30T01:22:14.210Z,1008.09
2018-09-30T01:23:14.188Z,1008.07
2018-09-30T01:24:14.176Z,1008.08
2018-09-30T01:25:14.164Z,1008.05
2018-09-30T01:26:14.153Z,1008.08
2018-09-30T01:27:14.183Z,1008.07
2018-09-30T01:28:14.130Z,1008.04
2018-09-30T01:29:14.120Z,1008.08
2018-09-30T01:30:14.110Z,1008.10
2018-09-30T01:31:14.099Z,1008.05
2018-09-30T01:32:14.090Z,1008.04
2018-09-30T01:33:14.089Z,1008.03
2018-09-30T01:34:14.072Z,1008.02
2018-09-30T01:35:14.057Z,1007.97
2018-09-30T01:36:14.045Z,1007.95
2018-09-30T01:37:14.033Z,1007.95
2018-09-30T01:38:14.038Z,1007.93
2018-09-30T01:39:14.010Z,1007.95
2018-09-30T01:40:14.003Z,1007.90
2018-09-30T01:41:13.989Z,1007.90
2018-09-30T01:42:13.978Z,1007.93
2018-09-30T01:43:13.991Z,1007.88
2018-09-30T01:44:13.956Z,1007.88
2018-09-30T01:45:13.946Z,1007.87
2018-09-30T01:46:13.935Z,1007.89
2018-09-30T01:47:13.925Z,1007.89
2018-09-30T01:48:13.912Z,1007.86
2018-09-30T01:49:13.918Z,1007.83
2018-09-30T01:50:13.890Z,1007.86
2018-09-30T01:51:13.880Z,1007.81
2018-09-30T01:52:13.883Z,1007.82
2018-09-30T01:53:13.859Z,1007.81
2018-09-30T01:54:13.847Z,1007.79
2018-09-30T01:55:13.837Z,1007.75
2018-09-30T01:56:13.827Z,1007.78
2018-09-30T01:57:13.830Z,1007.74
2018-09-30T01:58:13.807Z,1007.69
2018-09-30T01:59:13.795Z,1007.68
2018-09-30T02:00:13.784Z,1007.65
2018-09-30T02:01:13.775Z,1007.68
2018-09-30T02:02:13.775Z,1007.67
2018-09-30T02:03:13.750Z,1007.66
2018-09-30T02:04:13.739Z,1007.64
2018-09-30T02:05:13.747Z,1007.61
2018-09-30T02:06:13.718Z,1007.60
2018-09-30T02:07:13.707Z,1007.60
2018-09-30T02:08:13.699Z,1007.60
2018-09-30T02:09:13.685Z,1007.59
2018-09-30T02:10:13.678Z,1007.53
2018-09-30T02:11:13.686Z,1007.54
2018-09-30T02:12:13.653Z,1007.49
2018-09-30T02:13:13.641Z,1007.45
2018-09-30T02:14:13.630Z,1007.41
2018-09-30T02:15:13.620Z,1007.39
2018-09-30T02:16:13.610Z,1007.41
2018-09-30T02:17:13.612Z,1007.45
2018-09-30T02:18:13.590Z,1007.46
2018-09-30T02:19:13.576Z,1007.45
2018-09-30T02:20:13.566Z,1007.42
2018-09-30T02:21:13.555Z,1007.41
2018-09-30T02:22:13.567Z,1007.44
2018-09-30T02:23:13.532Z,1007.42
2018-09-30T02:24:13.521Z,1007.43
2018-09-30T02:25:14.530Z,1007.36
2018-09-30T02:26:13.500Z,1007.37
2018-09-30T02:27:13.490Z,1007.39
2018-09-30T02:28:13.501Z,1007.42
2018-09-30T02:29:13.468Z,1007.39
2018-09-30T02:30:13.467Z,1007.40
2018-09-30T02:31:13.449Z,1007.32
2018-09-30T02:32:13.436Z,1007.32
2018-09-30T02:33:13.427Z,1007.36
2018-09-30T02:34:13.448Z,1007.36
2018-09-30T02:35:13.405Z,1007.36
2018-09-30T02:36:13.393Z,1007.34
2018-09-30T02:37:13.382Z,1007.24
2018-09-30T02:38:13.371Z,1007.25
2018-09-30T02:39:13.378Z,1007.23
2018-09-30T02:40:13.349Z,1007.18
2018-09-30T02:41:13.337Z,1007.21
2018-09-30T02:42:13.331Z,1007.20
2018-09-30T02:43:13.330Z,1007.18
2018-09-30T02:44:13.362Z,1007.20
2018-09-30T02:45:13.294Z,1007.15
2018-09-30T02:46:13.285Z,1007.16
2018-09-30T02:47:13.273Z,1007.14
2018-09-30T02:48:13.262Z,1007.12
2018-09-30T02:49:13.252Z,1007.06
2018-09-30T02:50:13.255Z,1007.09
2018-09-30T02:51:13.230Z,1007.05
2018-09-30T02:52:13.219Z,1007.06
2018-09-30T02:53:13.208Z,1007.03
2018-09-30T02:54:13.196Z,1007.06
2018-09-30T02:55:13.201Z,1007.03
2018-09-30T02:56:13.198Z,1007.01
2018-09-30T02:57:13.165Z,1006.97
2018-09-30T02:58:13.155Z,1007.00
2018-09-30T02:59:13.145Z,1006.92
2018-09-30T03:00:13.136Z,1006.97
2018-09-30T03:01:13.123Z,1006.94
2018-09-30T03:02:13.125Z,1006.95
2018-09-30T03:03:13.112Z,1006.91
2018-09-30T03:04:13.089Z,1006.87
2018-09-30T03:05:13.079Z,1006.89
2018-09-30T03:06:13.068Z,1006.86
2018-09-30T03:07:13.057Z,1006.84
2018-09-30T03:08:13.071Z,1006.88
2018-09-30T03:09:13.035Z,1006.84
2018-09-30T03:10:13.026Z,1006.83
2018-09-30T03:11:13.012Z,1006.84
2018-09-30T03:12:13.002Z,1006.83
2018-09-30T03:13:12.992Z,1006.77
2018-09-30T03:14:12.995Z,1006.77
2018-09-30T03:15:12.969Z,1006.79
2018-09-30T03:16:12.958Z,1006.77
2018-09-30T03:17:12.963Z,1006.75
2018-09-30T03:18:12.938Z,1006.77
2018-09-30T03:19:12.943Z,1006.76
2018-09-30T03:20:12.915Z,1006.75
2018-09-30T03:21:12.919Z,1006.73
2018-09-30T03:22:12.893Z,1006.76
2018-09-30T03:23:12.898Z,1006.77
2018-09-30T03:24:12.884Z,1006.74
2018-09-30T03:25:12.860Z,1006.70
2018-09-30T03:26:12.852Z,1006.66
2018-09-30T03:27:12.839Z,1006.67
2018-09-30T03:28:12.840Z,1006.67
2018-09-30T03:29:12.815Z,1006.67
2018-09-30T03:30:12.806Z,1006.64
2018-09-30T03:31:12.794Z,1006.65
2018-09-30T03:32:12.783Z,1006.67
2018-09-30T03:33:12.794Z,1006.67
2018-09-30T03:34:12.760Z,1006.69
2018-09-30T03:35:12.750Z,1006.64
2018-09-30T03:36:12.739Z,1006.67
2018-09-30T03:37:12.729Z,1006.65
2018-09-30T03:38:12.719Z,1006.66
2018-09-30T03:39:12.721Z,1006.65
2018-09-30T03:40:12.695Z,1006.65
2018-09-30T03:41:12.686Z,1006.67
2018-09-30T03:42:12.674Z,1006.65
2018-09-30T03:43:12.663Z,1006.67
2018-09-30T03:44:12.673Z,1006.66
2018-09-30T03:45:12.641Z,1006.57
2018-09-30T03:46:12.631Z,1006.58
2018-09-30T03:47:12.622Z,1006.63
2018-09-30T03:48:12.610Z,1006.62
2018-09-30T03:49:12.598Z,1006.66
2018-09-30T03:50:12.602Z,1006.64
2018-09-30T03:51:12.586Z,1006.64
2018-09-30T03:52:12.575Z,1006.64
2018-09-30T03:53:12.554Z,1006.64
2018-09-30T03:54:12.542Z,1006.68
2018-09-30T03:55:12.550Z,1006.70
2018-09-30T03:56:12.522Z,1006.67
2018-09-30T03:57:12.510Z,1006.71
2018-09-30T03:58:12.500Z,1006.69
2018-09-30T03:59:12.489Z,1006.67
2018-09-30T04:00:12.480Z,1006.65
2018-09-30T04:01:12.482Z,1006.60
2018-09-30T04:02:12.455Z,1006.61
2018-09-30T04:03:12.445Z,1006.57
2018-09-30T04:04:12.433Z,1006.62
2018-09-30T04:05:12.448Z,1006.58
2018-09-30T04:06:12.413Z,1006.57
2018-09-30T04:07:12.406Z,1006.55
2018-09-30T04:08:12.391Z,1006.52
2018-09-30T04:09:12.381Z,1006.55
2018-09-30T04:10:12.436Z,1006.51
2018-09-30T04:11:12.538Z,1006.51
2018-09-30T04:12:12.349Z,1006.48
2018-09-30T04:13:12.337Z,1006.48
2018-09-30T04:14:12.327Z,1006.52
2018-09-30T04:15:12.316Z,1006.47
2018-09-30T04:16:12.308Z,1006.47
2018-09-30T04:17:12.602Z,1006.43
2018-09-30T04:18:12.284Z,1006.43
2018-09-30T04:19:12.290Z,1006.41
2018-09-30T04:20:12.274Z,1006.40
2018-09-30T04:21:12.252Z,1006.42
2018-09-30T04:22:12.241Z,1006.46
2018-09-30T04:23:12.244Z,1006.43
2018-09-30T04:24:12.218Z,1006.40
2018-09-30T04:25:12.208Z,1006.46
2018-09-30T04:26:12.240Z,1006.44
2018-09-30T04:27:12.189Z,1006.45
2018-09-30T04:28:12.175Z,1006.45
2018-09-30T04:29:12.165Z,1006.42
2018-09-30T04:30:12.153Z,1006.48
2018-09-30T04:31:12.147Z,1006.47
2018-09-30T04:32:12.148Z,1006.45
2018-09-30T04:33:12.174Z,1006.45
2018-09-30T04:34:12.109Z,1006.45
2018-09-30T04:35:12.106Z,1006.46
2018-09-30T04:36:12.089Z,1006.43
2018-09-30T04:37:12.082Z,1006.44
2018-09-30T04:38:12.067Z,1006.43
2018-09-30T04:39:12.070Z,1006.41
2018-09-30T04:40:12.045Z,1006.46
2018-09-30T04:41:12.035Z,1006.40
2018-09-30T04:42:12.039Z,1006.41
2018-09-30T04:43:12.011Z,1006.44
2018-09-30T04:44:12.020Z,1006.37
2018-09-30T04:45:11.991Z,1006.38
2018-09-30T04:46:11.998Z,1006.36
2018-09-30T04:47:11.968Z,1006.34
2018-09-30T04:48:11.958Z,1006.35
2018-09-30T04:49:11.946Z,1006.33
2018-09-30T04:50:11.951Z,1006.36
2018-09-30T04:51:11.925Z,1006.37
2018-09-30T04:52:11.916Z,1006.36
2018-09-30T04:53:11.904Z,1006.40
2018-09-30T04:54:11.907Z,1006.39
2018-09-30T04:55:11.895Z,1006.43
2018-09-30T04:56:11.888Z,1006.41
2018-09-30T04:57:11.859Z,1006.43
2018-09-30T04:58:11.848Z,1006.40
2018-09-30T04:59:11.837Z,1006.42
2018-09-30T05:00:11.890Z,1006.40
2018-09-30T05:01:11.815Z,1006.42
2018-09-30T05:02:11.806Z,1006.40
2018-09-30T05:03:11.793Z,1006.41
2018-09-30T05:04:11.782Z,1006.34
2018-09-30T05:05:11.772Z,1006.36
2018-09-30T05:06:11.775Z,1006.40
2018-09-30T05:07:11.763Z,1006.39
2018-09-30T05:08:11.739Z,1006.44
2018-09-30T05:09:11.728Z,1006.44
2018-09-30T05:10:11.719Z,1006.43
2018-09-30T05:11:11.734Z,1006.47
2018-09-30T05:12:11.696Z,1006.41
2018-09-30T05:13:11.684Z,1006.45
2018-09-30T05:14:11.673Z,1006.46
2018-09-30T05:15:11.662Z,1006.50
2018-09-30T05:16:11.657Z,1006.46
2018-09-30T05:17:11.658Z,1006.47
2018-09-30T05:18:11.630Z,1006.47
2018-09-30T05:19:11.619Z,1006.46
2018-09-30T05:20:11.608Z,1006.48
2018-09-30T05:21:11.597Z,1006.52
2018-09-30T05:22:11.609Z,1006.46
2018-09-30T05:23:11.575Z,1006.41
2018-09-30T05:24:11.564Z,1006.40
2018-09-30T05:25:11.554Z,1006.40
2018-09-30T05:26:11.543Z,1006.40
2018-09-30T05:27:11.532Z,1006.41
2018-09-30T05:28:11.539Z,1006.41
2018-09-30T05:29:11.509Z,1006.38
2018-09-30T05:30:11.499Z,1006.39
2018-09-30T05:31:11.552Z,1006.39
2018-09-30T05:32:11.478Z,1006.36
2018-09-30T05:33:11.482Z,1006.41
2018-09-30T05:34:11.471Z,1006.40
2018-09-30T05:35:11.445Z,1006.38
2018-09-30T05:36:11.475Z,1006.40
2018-09-30T05:37:11.443Z,1006.39
2018-09-30T05:38:11.413Z,1006.36
2018-09-30T05:39:11.401Z,1006.37
2018-09-30T05:40:11.402Z,1006.33
2018-09-30T05:41:11.380Z,1006.33
2018-09-30T05:42:11.372Z,1006.32
2018-09-30T05:43:11.357Z,1006.29
2018-09-30T05:44:11.361Z,1006.29
2018-09-30T05:45:11.335Z,1006.31
2018-09-30T05:46:11.323Z,1006.28
2018-09-30T05:47:11.327Z,1006.24
2018-09-30T05:48:11.307Z,1006.27
2018-09-30T05:49:11.359Z,1006.27
2018-09-30T05:50:11.281Z,1006.29
2018-09-30T05:51:11.305Z,1006.26
2018-09-30T05:52:11.261Z,1006.28
2018-09-30T05:53:11.247Z,1006.27
2018-09-30T05:54:11.236Z,1006.30
2018-09-30T05:55:11.228Z,1006.21
2018-09-30T05:56:11.215Z,1006.22
2018-09-30T05:57:11.217Z,1006.20
2018-09-30T05:58:11.193Z,1006.27
2018-09-30T05:59:11.183Z,1006.26
2018-09-30T06:00:11.207Z,1006.28
2018-09-30T06:01:11.160Z,1006.28
2018-09-30T06:02:11.150Z,1006.26
2018-09-30T06:03:11.140Z,1006.25
2018-09-30T06:04:11.128Z,1006.27
2018-09-30T06:05:11.117Z,1006.27
2018-09-30T06:06:11.119Z,1006.27
2018-09-30T06:07:11.109Z,1006.25
2018-09-30T06:08:11.085Z,1006.32
2018-09-30T06:09:11.120Z,1006.34
2018-09-30T06:10:11.069Z,1006.29
2018-09-30T06:11:11.070Z,1006.27
2018-09-30T06:12:11.041Z,1006.25
2018-09-30T06:13:11.031Z,1006.24
2018-09-30T06:14:11.132Z,1006.25
2018-09-30T06:15:11.013Z,1006.29
2018-09-30T06:16:10.999Z,1006.22
2018-09-30T06:17:11.003Z,1006.26
2018-09-30T06:18:10.976Z,1006.20
2018-09-30T06:19:10.980Z,1006.26
2018-09-30T06:20:10.955Z,1006.24
2018-09-30T06:21:10.944Z,1006.28
2018-09-30T06:22:10.933Z,1006.28
2018-09-30T06:23:10.922Z,1006.30
2018-09-30T06:24:11.064Z,1006.31
2018-09-30T06:25:10.900Z,1006.26
2018-09-30T06:26:10.891Z,1006.30
2018-09-30T06:27:10.879Z,1006.27
2018-09-30T06:28:10.868Z,1006.28
2018-09-30T06:29:10.857Z,1006.32
2018-09-30T06:30:10.871Z,1006.33
2018-09-30T06:31:10.841Z,1006.34
2018-09-30T06:32:10.891Z,1006.36
2018-09-30T06:33:10.818Z,1006.33
2018-09-30T06:34:10.803Z,1006.30
2018-09-30T06:35:10.792Z,1006.30
2018-09-30T06:36:10.796Z,1006.26
2018-09-30T06:37:10.811Z,1006.25
2018-09-30T06:38:10.760Z,1006.22
2018-09-30T06:39:10.772Z,1006.21
2018-09-30T06:40:10.759Z,1006.18
2018-09-30T06:41:10.727Z,1006.16
2018-09-30T06:42:10.721Z,1006.18
2018-09-30T06:43:10.705Z,1006.09
2018-09-30T06:44:10.694Z,1006.15
2018-09-30T06:45:10.819Z,1006.16
2018-09-30T06:46:10.690Z,1006.06
2018-09-30T06:47:10.663Z,1006.10
2018-09-30T06:48:10.651Z,1006.10
2018-09-30T06:49:10.640Z,1006.07
2018-09-30T06:50:10.642Z,1006.11
2018-09-30T06:51:10.618Z,1006.14
2018-09-30T06:52:10.608Z,1006.13
2018-09-30T06:53:10.596Z,1006.18
2018-09-30T06:54:10.584Z,1006.12
2018-09-30T06:55:10.595Z,1006.14
2018-09-30T06:56:10.564Z,1006.16
2018-09-30T06:57:10.553Z,1006.11
2018-09-30T06:58:10.542Z,1006.12
2018-09-30T06:59:10.534Z,1006.11
2018-09-30T07:00:10.519Z,1006.13
2018-09-30T07:01:10.521Z,1006.13
2018-09-30T07:02:10.498Z,1006.14
2018-09-30T07:03:10.486Z,1006.05
2018-09-30T07:04:10.474Z,1006.10
2018-09-30T07:05:10.464Z,1006.11
2018-09-30T07:06:10.468Z,1006.13
2018-09-30T07:07:10.442Z,1006.14
2018-09-30T07:08:10.431Z,1006.09
2018-09-30T07:09:10.435Z,1006.10
2018-09-30T07:10:10.410Z,1006.06
2018-09-30T07:11:10.402Z,1006.12
2018-09-30T07:12:10.401Z,1006.10
2018-09-30T07:13:10.376Z,1006.16
2018-09-30T07:14:10.365Z,1006.12
2018-09-30T07:15:10.355Z,1006.15
2018-09-30T07:16:10.357Z,1006.16
2018-09-30T07:17:10.337Z,1006.19
2018-09-30T07:18:10.352Z,1006.14
2018-09-30T07:19:10.311Z,1006.19
2018-09-30T07:20:10.299Z,1006.15
2018-09-30T07:21:10.290Z,1006.13
2018-09-30T07:22:10.324Z,1006.16
2018-09-30T07:23:10.270Z,1006.11
2018-09-30T07:24:10.270Z,1006.10
2018-09-30T07:25:10.244Z,1006.13
2018-09-30T07:26:10.233Z,1006.20
2018-09-30T07:27:10.225Z,1006.17
2018-09-30T07:28:10.214Z,1006.15
2018-09-30T07:29:10.224Z,1006.14
2018-09-30T07:30:10.192Z,1006.14
2018-09-30T07:31:10.179Z,1006.20
2018-09-30T07:32:10.168Z,1006.19
2018-09-30T07:33:10.171Z,1006.16
2018-09-30T07:34:10.157Z,1006.15
2018-09-30T07:35:10.135Z,1006.17
2018-09-30T07:36:10.125Z,1006.19
2018-09-30T07:37:10.114Z,1006.19
2018-09-30T07:38:10.114Z,1006.12
2018-09-30T07:39:10.090Z,1006.11
2018-09-30T07:40:10.094Z,1006.07
2018-09-30T07:41:10.099Z,1006.10
2018-09-30T07:42:10.059Z,1006.10
2018-09-30T07:43:10.047Z,1006.09
2018-09-30T07:44:10.034Z,1006.01
2018-09-30T07:45:10.039Z,1005.98
2018-09-30T07:46:10.016Z,1006.04
2018-09-30T07:47:10.019Z,1005.99
2018-09-30T07:48:09.992Z,1005.99
2018-09-30T07:49:10.014Z,1006.01
2018-09-30T07:50:09.971Z,1006.04
2018-09-30T07:51:09.960Z,1006.05
2018-09-30T07:52:09.948Z,1006.08
2018-09-30T07:53:09.937Z,1006.00
2018-09-30T07:54:09.925Z,1006.02
2018-09-30T07:55:09.927Z,1006.02
2018-09-30T07:56:09.904Z,1006.00
2018-09-30T07:57:09.913Z,1006.06
2018-09-30T07:58:09.882Z,1006.00
2018-09-30T07:59:09.870Z,1005.98
2018-09-30T08:00:09.860Z,1006.06
2018-09-30T08:01:09.852Z,1005.99
2018-09-30T08:02:09.838Z,1005.98
2018-09-30T08:03:09.840Z,1006.00
2018-09-30T08:04:09.826Z,1005.97
2018-09-30T08:05:09.819Z,1005.98
2018-09-30T08:06:09.793Z,1005.97
2018-09-30T08:07:09.785Z,1005.94
2018-09-30T08:08:09.772Z,1005.97
2018-09-30T08:09:09.775Z,1005.97
2018-09-30T08:10:09.751Z,1005.99
2018-09-30T08:11:09.752Z,1005.97
2018-09-30T08:12:09.742Z,1005.98
2018-09-30T08:13:09.716Z,1005.97
2018-09-30T08:14:09.705Z,1005.98
2018-09-30T08:15:09.709Z,1006.01
2018-09-30T08:16:09.683Z,1005.97
2018-09-30T08:17:09.688Z,1005.97
2018-09-30T08:18:09.661Z,1005.95
2018-09-30T08:19:09.651Z,1005.94
2018-09-30T08:20:09.680Z,1005.95
2018-09-30T08:21:10.454Z,1005.98
2018-09-30T08:22:09.617Z,1006.02
2018-09-30T08:23:09.608Z,1006.04
2018-09-30T08:24:09.632Z,1006.03
2018-09-30T08:25:09.585Z,1006.03
2018-09-30T08:26:09.604Z,1006.02
2018-09-30T08:27:09.563Z,1006.06
2018-09-30T08:28:09.554Z,1006.00
2018-09-30T08:29:09.556Z,1005.99
2018-09-30T08:30:09.530Z,1006.04
2018-09-30T08:31:09.519Z,1006.06
2018-09-30T08:32:09.531Z,1006.05
2018-09-30T08:33:09.498Z,1006.07
2018-09-30T08:34:09.486Z,1006.01
2018-09-30T08:35:09.475Z,1006.01
2018-09-30T08:36:09.464Z,1006.00
2018-09-30T08:37:09.452Z,1005.97
2018-09-30T08:38:09.456Z,1005.91
2018-09-30T08:39:09.434Z,1005.96
2018-09-30T08:40:09.494Z,1005.95
2018-09-30T08:41:09.409Z,1005.97
2018-09-30T08:42:09.401Z,1005.96
2018-09-30T08:43:09.402Z,1005.96
2018-09-30T08:44:09.409Z,1005.96
2018-09-30T08:45:09.365Z,1005.98
2018-09-30T08:46:09.355Z,1005.97
2018-09-30T08:47:09.390Z,1005.92
2018-09-30T08:48:09.352Z,1005.94
2018-09-30T08:49:09.340Z,1005.91
2018-09-30T08:50:09.312Z,1005.89
2018-09-30T08:51:09.299Z,1005.89
2018-09-30T08:52:09.289Z,1005.90
2018-09-30T08:53:09.278Z,1005.88
2018-09-30T08:54:09.278Z,1005.88
2018-09-30T08:55:09.256Z,1005.91
2018-09-30T08:56:09.319Z,1005.91
2018-09-30T08:57:09.234Z,1005.87
2018-09-30T08:58:09.224Z,1005.90
2018-09-30T08:59:09.227Z,1005.94
2018-09-30T09:00:09.202Z,1005.91
2018-09-30T09:01:09.192Z,1005.90
2018-09-30T09:02:09.181Z,1005.85
2018-09-30T09:03:09.198Z,1005.84
2018-09-30T09:04:09.173Z,1005.89
2018-09-30T09:05:09.164Z,1005.86
2018-09-30T09:06:09.155Z,1005.81
2018-09-30T09:07:09.129Z,1005.85
2018-09-30T09:08:09.119Z,1005.83
2018-09-30T09:09:09.109Z,1005.84
2018-09-30T09:10:09.111Z,1005.87
2018-09-30T09:11:09.088Z,1005.88
2018-09-30T09:12:09.080Z,1005.83
2018-09-30T09:13:09.082Z,1005.88
2018-09-30T09:14:09.055Z,1005.89
2018-09-30T09:15:09.069Z,1005.91
2018-09-30T09:16:09.037Z,1005.85
2018-09-30T09:17:09.024Z,1005.80
2018-09-30T09:18:09.014Z,1005.81
2018-09-30T09:19:09.003Z,1005.80
2018-09-30T09:20:08.993Z,1005.78
2018-09-30T09:21:08.996Z,1005.81
2018-09-30T09:22:08.984Z,1005.77
2018-09-30T09:23:08.962Z,1005.84
2018-09-30T09:24:08.954Z,1005.82
2018-09-30T09:25:08.940Z,1005.79
2018-09-30T09:26:08.944Z,1005.78
2018-09-30T09:27:08.921Z,1005.79
2018-09-30T09:28:08.968Z,1005.71
2018-09-30T09:29:08.899Z,1005.68
2018-09-30T09:30:08.887Z,1005.68
2018-09-30T09:31:08.890Z,1005.70
2018-09-30T09:32:08.889Z,1005.71
2018-09-30T09:33:09.027Z,1005.67
2018-09-30T09:34:08.842Z,1005.63
2018-09-30T09:35:08.913Z,1005.61
2018-09-30T09:36:08.821Z,1005.54
2018-09-30T09:37:08.811Z,1005.55
2018-09-30T09:38:08.815Z,1005.57
2018-09-30T09:39:08.789Z,1005.57
2018-09-30T09:40:08.779Z,1005.56
2018-09-30T09:41:08.772Z,1005.58
2018-09-30T09:42:08.755Z,1005.58
2018-09-30T09:43:08.760Z,1005.56
2018-09-30T09:44:08.733Z,1005.58
2018-09-30T09:45:08.724Z,1005.55
2018-09-30T09:46:08.709Z,1005.52
2018-09-30T09:47:08.811Z,1005.50
2018-09-30T09:48:08.700Z,1005.57
2018-09-30T09:49:08.676Z,1005.56
2018-09-30T09:50:08.665Z,1005.57
2018-09-30T09:51:08.654Z,1005.56
2018-09-30T09:52:08.644Z,1005.57
2018-09-30T09:53:08.648Z,1005.53
2018-09-30T09:54:08.625Z,1005.49
2018-09-30T09:55:08.620Z,1005.52
2018-09-30T09:56:08.599Z,1005.51
2018-09-30T09:57:08.589Z,1005.52
2018-09-30T09:58:08.599Z,1005.54
2018-09-30T09:59:08.649Z,1005.46
2018-09-30T10:00:08.557Z,1005.43
2018-09-30T10:01:08.546Z,1005.50
2018-09-30T10:02:08.533Z,1005.45
2018-09-30T10:03:08.521Z,1005.49
2018-09-30T10:04:08.524Z,1005.42
2018-09-30T10:05:08.506Z,1005.41
2018-09-30T10:06:08.490Z,1005.45
2018-09-30T10:07:08.476Z,1005.46
2018-09-30T10:08:08.510Z,1005.41
2018-09-30T10:09:08.476Z,1005.42
2018-09-30T10:10:08.446Z,1005.43
2018-09-30T10:11:08.436Z,1005.42
2018-09-30T10:12:08.424Z,1005.39
2018-09-30T10:13:08.436Z,1005.36
2018-09-30T10:14:08.406Z,1005.37
2018-09-30T10:15:08.405Z,1005.32
2018-09-30T10:16:08.386Z,1005.32
2018-09-30T10:17:08.371Z,1005.31
2018-09-30T10:18:08.360Z,1005.27
2018-09-30T10:19:08.349Z,1005.23
2018-09-30T10:20:08.355Z,1005.27
2018-09-30T10:21:08.328Z,1005.24
2018-09-30T10:22:08.334Z,1005.28
2018-09-30T10:23:08.309Z,1005.26
2018-09-30T10:24:08.298Z,1005.23
2018-09-30T10:25:08.301Z,1005.22
2018-09-30T10:26:08.275Z,1005.14
2018-09-30T10:27:08.264Z,1005.17
2018-09-30T10:28:08.253Z,1005.07
2018-09-30T10:29:08.243Z,1005.10
2018-09-30T10:30:08.250Z,1005.07
2018-09-30T10:31:08.234Z,1005.10
2018-09-30T10:32:08.225Z,1005.10
2018-09-30T10:33:08.200Z,1005.09
2018-09-30T10:34:08.203Z,1005.06
2018-09-30T10:35:08.177Z,1005.06
2018-09-30T10:36:08.168Z,1005.06
2018-09-30T10:37:08.185Z,1005.02
2018-09-30T10:38:09.019Z,1004.99
2018-09-30T10:39:08.262Z,1004.97
2018-09-30T10:40:08.125Z,1004.90
2018-09-30T10:41:08.114Z,1004.92
2018-09-30T10:42:08.106Z,1004.92
2018-09-30T10:43:08.125Z,1004.92
2018-09-30T10:44:08.088Z,1004.92
2018-09-30T10:45:08.089Z,1004.91
2018-09-30T10:46:08.061Z,1004.88
2018-09-30T10:47:08.053Z,1004.87
2018-09-30T10:48:08.040Z,1004.85
2018-09-30T10:49:08.042Z,1004.81
2018-09-30T10:50:08.020Z,1004.80
2018-09-30T10:51:08.014Z,1004.74
2018-09-30T10:52:07.997Z,1004.76
2018-09-30T10:53:07.986Z,1004.77
2018-09-30T10:54:07.990Z,1004.79
2018-09-30T10:55:08.032Z,1004.77
2018-09-30T10:56:07.955Z,1004.73
2018-09-30T10:57:07.943Z,1004.66
2018-09-30T10:58:07.932Z,1004.70
2018-09-30T10:59:07.923Z,1004.64
2018-09-30T11:00:07.934Z,1004.66
2018-09-30T11:01:07.900Z,1004.62
2018-09-30T11:02:07.892Z,1004.65
2018-09-30T11:03:07.901Z,1004.67
2018-09-30T11:04:07.868Z,1004.64
2018-09-30T11:05:07.858Z,1004.65
2018-09-30T11:06:07.862Z,1004.61
2018-09-30T11:07:07.839Z,1004.60
2018-09-30T11:08:07.825Z,1004.61
2018-09-30T11:09:07.815Z,1004.61
2018-09-30T11:10:07.826Z,1004.57
2018-09-30T11:11:07.810Z,1004.59
2018-09-30T11:12:07.783Z,1004.53
2018-09-30T11:13:07.773Z,1004.52
2018-09-30T11:14:07.761Z,1004.50
2018-09-30T11:15:07.751Z,1004.47
2018-09-30T11:16:07.817Z,1004.42
2018-09-30T11:17:07.729Z,1004.41
2018-09-30T11:18:07.719Z,1004.44
2018-09-30T11:19:07.708Z,1004.46
2018-09-30T11:20:07.697Z,1004.45
2018-09-30T11:21:07.701Z,1004.47
2018-09-30T11:22:07.691Z,1004.46
2018-09-30T11:23:07.666Z,1004.46
2018-09-30T11:24:07.654Z,1004.48
2018-09-30T11:25:07.647Z,1004.48
2018-09-30T11:26:07.654Z,1004.47
2018-09-30T11:27:07.623Z,1004.41
2018-09-30T11:28:07.612Z,1004.40
2018-09-30T11:29:07.602Z,1004.36
2018-09-30T11:30:07.590Z,1004.31
2018-09-30T11:31:07.582Z,1004.28
2018-09-30T11:32:07.582Z,1004.28
2018-09-30T11:33:07.579Z,1004.23
2018-09-30T11:34:07.546Z,1004.22
2018-09-30T11:35:07.537Z,1004.17
2018-09-30T11:36:07.528Z,1004.17
2018-09-30T11:37:07.517Z,1004.22
2018-09-30T11:38:07.506Z,1004.21
2018-09-30T11:39:07.533Z,1004.21
2018-09-30T11:40:07.484Z,1004.24
2018-09-30T11:41:07.473Z,1004.22
2018-09-30T11:42:07.462Z,1004.19
2018-09-30T11:43:07.451Z,1004.19
2018-09-30T11:44:07.441Z,1004.13
2018-09-30T11:45:07.446Z,1004.13
2018-09-30T11:46:07.420Z,1004.16
2018-09-30T11:47:07.409Z,1004.14
2018-09-30T11:48:07.398Z,1004.15
2018-09-30T11:49:07.388Z,1004.09
2018-09-30T11:50:07.391Z,1004.07
2018-09-30T11:51:07.366Z,1004.04
2018-09-30T11:52:07.356Z,1004.05
2018-09-30T11:53:07.349Z,1003.99
2018-09-30T11:54:07.336Z,1003.98
2018-09-30T11:55:07.339Z,1003.99
2018-09-30T11:56:07.314Z,1003.91
2018-09-30T11:57:07.303Z,1003.91
2018-09-30T11:58:07.294Z,1003.92
2018-09-30T11:59:07.299Z,1003.90
2018-09-30T12:00:07.272Z,1003.87
2018-09-30T12:01:07.264Z,1003.86
2018-09-30T12:02:07.265Z,1003.87
2018-09-30T12:03:07.252Z,1003.83
2018-09-30T12:04:07.227Z,1003.83
2018-09-30T12:05:07.219Z,1003.72